sensor_id;sensor_type;location;lat;lon;timestamp;temperature;humidity
60313;DHT22;46158;52.850;6.970;2024-03-08T00:02:17;16.00;72.50
60313;DHT22;46158;52.850;6.970;2024-03-08T00:04:43;16.00;72.60
60313;DHT22;46158;52.850;6.970;2024-03-08T00:07:10;16.00;72.60
60313;DHT22;46158;52.850;6.970;2024-03-08T00:09:35;15.90;72.50
60313;DHT22;46158;52.850;6.970;2024-03-08T00:12:01;15.90;72.50
60313;DHT22;46158;52.850;6.970;2024-03-08T00:14:27;15.90;72.50
60313;DHT22;46158;52.850;6.970;2024-03-08T00:16:53;15.90;72.50
60313;DHT22;46158;52.850;6.970;2024-03-08T00:19:20;15.90;72.50
60313;DHT22;46158;52.850;6.970;2024-03-08T00:21:46;15.80;72.50
60313;DHT22;46158;52.850;6.970;2024-03-08T00:24:11;15.80;72.50
60313;DHT22;46158;52.850;6.970;2024-03-08T00:26:37;15.80;72.50
60313;DHT22;46158;52.850;6.970;2024-03-08T00:29:03;15.70;72.50
60313;DHT22;46158;52.850;6.970;2024-03-08T00:31:30;15.70;72.40
60313;DHT22;46158;52.850;6.970;2024-03-08T00:33:57;15.70;72.40
60313;DHT22;46158;52.850;6.970;2024-03-08T00:36:23;15.70;72.40
60313;DHT22;46158;52.850;6.970;2024-03-08T00:38:48;15.70;72.40
60313;DHT22;46158;52.850;6.970;2024-03-08T00:41:14;15.70;72.50
60313;DHT22;46158;52.850;6.970;2024-03-08T00:43:40;15.60;72.40
60313;DHT22;46158;52.850;6.970;2024-03-08T00:46:05;15.60;72.40
60313;DHT22;46158;52.850;6.970;2024-03-08T00:48:31;15.60;72.40
60313;DHT22;46158;52.850;6.970;2024-03-08T00:50:57;15.60;72.30
60313;DHT22;46158;52.850;6.970;2024-03-08T00:53:23;15.60;72.30
60313;DHT22;46158;52.850;6.970;2024-03-08T00:55:48;15.60;72.30
60313;DHT22;46158;52.850;6.970;2024-03-08T00:58:14;15.60;72.20
60313;DHT22;46158;52.850;6.970;2024-03-08T01:00:40;15.60;72.10
60313;DHT22;46158;52.850;6.970;2024-03-08T01:03:06;15.60;72.10
60313;DHT22;46158;52.850;6.970;2024-03-08T01:05:32;15.60;72.00
60313;DHT22;46158;52.850;6.970;2024-03-08T01:07:58;15.60;71.90
60313;DHT22;46158;52.850;6.970;2024-03-08T01:10:23;15.60;71.90
60313;DHT22;46158;52.850;6.970;2024-03-08T01:12:49;15.60;71.90
60313;DHT22;46158;52.850;6.970;2024-03-08T01:15:15;15.60;71.90
60313;DHT22;46158;52.850;6.970;2024-03-08T01:17:41;15.60;71.80
60313;DHT22;46158;52.850;6.970;2024-03-08T01:20:07;15.60;71.90
60313;DHT22;46158;52.850;6.970;2024-03-08T01:22:36;15.60;71.90
60313;DHT22;46158;52.850;6.970;2024-03-08T01:25:02;15.50;71.80
60313;DHT22;46158;52.850;6.970;2024-03-08T01:27:30;15.50;72.50
60313;DHT22;46158;52.850;6.970;2024-03-08T01:29:56;15.50;71.80
60313;DHT22;46158;52.850;6.970;2024-03-08T01:32:22;15.50;71.80
60313;DHT22;46158;52.850;6.970;2024-03-08T01:34:49;15.50;71.80
60313;DHT22;46158;52.850;6.970;2024-03-08T01:37:14;15.50;71.70
60313;DHT22;46158;52.850;6.970;2024-03-08T01:39:40;15.50;71.70
60313;DHT22;46158;52.850;6.970;2024-03-08T01:42:06;15.50;71.70
60313;DHT22;46158;52.850;6.970;2024-03-08T01:44:31;15.50;71.60
60313;DHT22;46158;52.850;6.970;2024-03-08T01:46:57;15.50;71.60
60313;DHT22;46158;52.850;6.970;2024-03-08T01:49:24;15.50;71.60
60313;DHT22;46158;52.850;6.970;2024-03-08T01:51:51;15.50;71.60
60313;DHT22;46158;52.850;6.970;2024-03-08T01:54:17;15.50;71.50
60313;DHT22;46158;52.850;6.970;2024-03-08T01:56:43;15.50;71.50
60313;DHT22;46158;52.850;6.970;2024-03-08T01:59:09;15.50;71.50
60313;DHT22;46158;52.850;6.970;2024-03-08T02:01:35;15.50;71.50
60313;DHT22;46158;52.850;6.970;2024-03-08T02:04:01;15.50;71.50
60313;DHT22;46158;52.850;6.970;2024-03-08T02:06:26;15.50;71.60
60313;DHT22;46158;52.850;6.970;2024-03-08T02:08:52;15.40;71.50
60313;DHT22;46158;52.850;6.970;2024-03-08T02:11:19;15.40;71.50
60313;DHT22;46158;52.850;6.970;2024-03-08T02:13:46;15.40;71.50
60313;DHT22;46158;52.850;6.970;2024-03-08T02:16:12;15.40;71.50
60313;DHT22;46158;52.850;6.970;2024-03-08T02:18:37;15.40;71.50
60313;DHT22;46158;52.850;6.970;2024-03-08T02:21:05;15.40;71.50
60313;DHT22;46158;52.850;6.970;2024-03-08T02:23:32;15.40;71.40
60313;DHT22;46158;52.850;6.970;2024-03-08T02:25:58;15.40;71.40
60313;DHT22;46158;52.850;6.970;2024-03-08T02:28:24;15.40;71.40
60313;DHT22;46158;52.850;6.970;2024-03-08T02:30:54;15.40;71.30
60313;DHT22;46158;52.850;6.970;2024-03-08T02:33:21;15.40;71.20
60313;DHT22;46158;52.850;6.970;2024-03-08T02:35:48;15.40;71.20
60313;DHT22;46158;52.850;6.970;2024-03-08T02:38:15;15.40;71.10
60313;DHT22;46158;52.850;6.970;2024-03-08T02:40:48;15.40;71.10
60313;DHT22;46158;52.850;6.970;2024-03-08T02:43:15;15.30;71.00
60313;DHT22;46158;52.850;6.970;2024-03-08T02:45:41;15.40;71.10
60313;DHT22;46158;52.850;6.970;2024-03-08T02:48:12;15.40;71.00
60313;DHT22;46158;52.850;6.970;2024-03-08T02:50:38;15.30;71.00
60313;DHT22;46158;52.850;6.970;2024-03-08T02:53:13;15.30;71.00
60313;DHT22;46158;52.850;6.970;2024-03-08T02:55:39;15.30;71.10
60313;DHT22;46158;52.850;6.970;2024-03-08T02:58:06;15.30;71.10
60313;DHT22;46158;52.850;6.970;2024-03-08T03:00:36;15.30;71.10
60313;DHT22;46158;52.850;6.970;2024-03-08T03:03:02;15.30;71.00
60313;DHT22;46158;52.850;6.970;2024-03-08T03:05:28;15.30;71.00
60313;DHT22;46158;52.850;6.970;2024-03-08T03:07:55;15.30;71.00
60313;DHT22;46158;52.850;6.970;2024-03-08T03:10:21;15.30;70.90
60313;DHT22;46158;52.850;6.970;2024-03-08T03:12:49;15.30;70.80
60313;DHT22;46158;52.850;6.970;2024-03-08T03:15:16;15.30;70.90
60313;DHT22;46158;52.850;6.970;2024-03-08T03:17:49;15.30;70.80
60313;DHT22;46158;52.850;6.970;2024-03-08T03:20:17;15.30;70.70
60313;DHT22;46158;52.850;6.970;2024-03-08T03:22:49;15.30;70.70
60313;DHT22;46158;52.850;6.970;2024-03-08T03:25:21;15.30;70.70
60313;DHT22;46158;52.850;6.970;2024-03-08T03:27:55;15.30;70.60
60313;DHT22;46158;52.850;6.970;2024-03-08T03:30:24;15.30;70.50
60313;DHT22;46158;52.850;6.970;2024-03-08T03:32:52;15.30;70.40
60313;DHT22;46158;52.850;6.970;2024-03-08T03:35:19;15.30;70.40
60313;DHT22;46158;52.850;6.970;2024-03-08T03:37:46;15.30;70.20
60313;DHT22;46158;52.850;6.970;2024-03-08T03:40:27;15.30;70.20
60313;DHT22;46158;52.850;6.970;2024-03-08T03:42:53;15.30;70.20
60313;DHT22;46158;52.850;6.970;2024-03-08T03:45:18;15.30;70.20
60313;DHT22;46158;52.850;6.970;2024-03-08T03:47:46;15.30;70.10
60313;DHT22;46158;52.850;6.970;2024-03-08T03:50:11;15.30;70.20
60313;DHT22;46158;52.850;6.970;2024-03-08T03:52:37;15.30;70.20
60313;DHT22;46158;52.850;6.970;2024-03-08T03:55:05;15.20;70.10
60313;DHT22;46158;52.850;6.970;2024-03-08T03:57:31;15.20;70.20
60313;DHT22;46158;52.850;6.970;2024-03-08T03:59:57;15.30;70.20
60313;DHT22;46158;52.850;6.970;2024-03-08T04:02:29;15.20;70.10
60313;DHT22;46158;52.850;6.970;2024-03-08T04:04:55;15.20;70.10
60313;DHT22;46158;52.850;6.970;2024-03-08T04:07:21;15.20;70.00
60313;DHT22;46158;52.850;6.970;2024-03-08T04:09:47;15.30;70.70
60313;DHT22;46158;52.850;6.970;2024-03-08T04:12:12;15.30;70.00
60313;DHT22;46158;52.850;6.970;2024-03-08T04:14:42;15.30;70.00
60313;DHT22;46158;52.850;6.970;2024-03-08T04:17:08;15.30;69.90
60313;DHT22;46158;52.850;6.970;2024-03-08T04:19:35;15.30;69.90
60313;DHT22;46158;52.850;6.970;2024-03-08T04:22:01;15.30;69.90
60313;DHT22;46158;52.850;6.970;2024-03-08T04:24:27;15.30;69.80
60313;DHT22;46158;52.850;6.970;2024-03-08T04:26:54;15.40;69.80
60313;DHT22;46158;52.850;6.970;2024-03-08T04:29:20;15.30;69.70
60313;DHT22;46158;52.850;6.970;2024-03-08T04:31:45;15.40;69.70
60313;DHT22;46158;52.850;6.970;2024-03-08T04:34:12;15.40;69.60
60313;DHT22;46158;52.850;6.970;2024-03-08T04:36:38;15.40;69.50
60313;DHT22;46158;52.850;6.970;2024-03-08T04:39:04;15.40;69.50
60313;DHT22;46158;52.850;6.970;2024-03-08T04:41:30;15.50;69.40
60313;DHT22;46158;52.850;6.970;2024-03-08T04:43:56;15.50;69.40
60313;DHT22;46158;52.850;6.970;2024-03-08T04:46:23;15.50;69.30
60313;DHT22;46158;52.850;6.970;2024-03-08T04:48:49;15.50;69.20
60313;DHT22;46158;52.850;6.970;2024-03-08T04:51:15;15.60;69.20
60313;DHT22;46158;52.850;6.970;2024-03-08T04:53:41;15.60;69.10
60313;DHT22;46158;52.850;6.970;2024-03-08T04:56:07;15.50;68.90
60313;DHT22;46158;52.850;6.970;2024-03-08T04:58:35;15.60;68.90
60313;DHT22;46158;52.850;6.970;2024-03-08T05:01:01;15.60;68.80
60313;DHT22;46158;52.850;6.970;2024-03-08T05:03:27;15.60;68.80
60313;DHT22;46158;52.850;6.970;2024-03-08T05:05:54;15.60;68.80
60313;DHT22;46158;52.850;6.970;2024-03-08T05:08:19;15.50;68.80
60313;DHT22;46158;52.850;6.970;2024-03-08T05:10:45;15.50;68.70
60313;DHT22;46158;52.850;6.970;2024-03-08T05:13:12;15.50;68.80
60313;DHT22;46158;52.850;6.970;2024-03-08T05:15:38;15.50;68.80
60313;DHT22;46158;52.850;6.970;2024-03-08T05:18:05;15.50;68.80
60313;DHT22;46158;52.850;6.970;2024-03-08T05:20:31;15.50;68.70
60313;DHT22;46158;52.850;6.970;2024-03-08T05:22:56;15.50;68.80
60313;DHT22;46158;52.850;6.970;2024-03-08T05:25:24;15.50;68.80
60313;DHT22;46158;52.850;6.970;2024-03-08T05:27:49;15.50;68.80
60313;DHT22;46158;52.850;6.970;2024-03-08T05:30:15;15.50;68.80
60313;DHT22;46158;52.850;6.970;2024-03-08T05:32:44;15.50;68.70
60313;DHT22;46158;52.850;6.970;2024-03-08T05:35:12;15.50;68.70
60313;DHT22;46158;52.850;6.970;2024-03-08T05:37:38;15.50;68.70
60313;DHT22;46158;52.850;6.970;2024-03-08T05:40:05;15.50;69.40
60313;DHT22;46158;52.850;6.970;2024-03-08T05:42:38;15.50;68.70
60313;DHT22;46158;52.850;6.970;2024-03-08T05:45:04;15.50;68.70
60313;DHT22;46158;52.850;6.970;2024-03-08T05:47:32;15.50;68.60
60313;DHT22;46158;52.850;6.970;2024-03-08T05:49:58;15.50;68.60
60313;DHT22;46158;52.850;6.970;2024-03-08T05:52:24;15.50;68.60
60313;DHT22;46158;52.850;6.970;2024-03-08T05:54:51;15.50;68.60
60313;DHT22;46158;52.850;6.970;2024-03-08T05:57:17;15.50;68.80
60313;DHT22;46158;52.850;6.970;2024-03-08T05:59:43;15.50;68.90
60313;DHT22;46158;52.850;6.970;2024-03-08T06:02:08;15.50;69.00
60313;DHT22;46158;52.850;6.970;2024-03-08T06:04:34;15.50;69.00
60313;DHT22;46158;52.850;6.970;2024-03-08T06:07:00;15.60;69.20
60313;DHT22;46158;52.850;6.970;2024-03-08T06:09:25;15.50;69.10
60313;DHT22;46158;52.850;6.970;2024-03-08T06:11:53;15.50;69.20
60313;DHT22;46158;52.850;6.970;2024-03-08T06:14:20;15.60;69.20
60313;DHT22;46158;52.850;6.970;2024-03-08T06:16:46;15.60;69.30
60313;DHT22;46158;52.850;6.970;2024-03-08T06:19:13;15.60;69.30
60313;DHT22;46158;52.850;6.970;2024-03-08T06:21:39;15.60;69.20
60313;DHT22;46158;52.850;6.970;2024-03-08T06:24:05;15.70;69.30
60313;DHT22;46158;52.850;6.970;2024-03-08T06:26:30;15.70;69.30
60313;DHT22;46158;52.850;6.970;2024-03-08T06:28:56;15.70;69.20
60313;DHT22;46158;52.850;6.970;2024-03-08T06:31:22;15.70;69.20
60313;DHT22;46158;52.850;6.970;2024-03-08T06:33:48;15.70;69.10
60313;DHT22;46158;52.850;6.970;2024-03-08T06:36:19;15.70;69.10
60313;DHT22;46158;52.850;6.970;2024-03-08T06:38:47;15.80;69.10
60313;DHT22;46158;52.850;6.970;2024-03-08T06:41:13;15.80;69.10
60313;DHT22;46158;52.850;6.970;2024-03-08T06:43:45;15.80;69.00
60313;DHT22;46158;52.850;6.970;2024-03-08T06:46:12;15.80;69.70
60313;DHT22;46158;52.850;6.970;2024-03-08T06:48:38;15.80;68.90
60313;DHT22;46158;52.850;6.970;2024-03-08T06:51:05;15.80;68.90
60313;DHT22;46158;52.850;6.970;2024-03-08T06:53:31;15.90;69.00
60313;DHT22;46158;52.850;6.970;2024-03-08T06:55:58;15.90;69.00
60313;DHT22;46158;52.850;6.970;2024-03-08T06:58:24;15.90;69.00
60313;DHT22;46158;52.850;6.970;2024-03-08T07:00:50;15.90;68.90
60313;DHT22;46158;52.850;6.970;2024-03-08T07:03:18;16.00;68.90
60313;DHT22;46158;52.850;6.970;2024-03-08T07:05:45;16.00;68.70
60313;DHT22;46158;52.850;6.970;2024-03-08T07:08:12;16.00;68.70
60313;DHT22;46158;52.850;6.970;2024-03-08T07:10:39;16.10;68.70
60313;DHT22;46158;52.850;6.970;2024-03-08T07:13:07;16.00;68.60
60313;DHT22;46158;52.850;6.970;2024-03-08T07:15:32;16.10;68.60
60313;DHT22;46158;52.850;6.970;2024-03-08T07:17:58;16.10;68.60
60313;DHT22;46158;52.850;6.970;2024-03-08T07:20:25;16.10;68.50
60313;DHT22;46158;52.850;6.970;2024-03-08T07:22:51;16.10;68.40
60313;DHT22;46158;52.850;6.970;2024-03-08T07:25:17;16.20;68.40
60313;DHT22;46158;52.850;6.970;2024-03-08T07:27:54;16.20;68.40
60313;DHT22;46158;52.850;6.970;2024-03-08T07:30:24;16.20;68.30
60313;DHT22;46158;52.850;6.970;2024-03-08T07:33:09;16.20;68.20
60313;DHT22;46158;52.850;6.970;2024-03-08T07:35:40;16.20;68.20
60313;DHT22;46158;52.850;6.970;2024-03-08T07:38:09;16.20;68.10
60313;DHT22;46158;52.850;6.970;2024-03-08T07:40:39;16.20;68.00
60313;DHT22;46158;52.850;6.970;2024-03-08T07:43:09;16.30;68.00
60313;DHT22;46158;52.850;6.970;2024-03-08T07:45:38;16.30;67.90
60313;DHT22;46158;52.850;6.970;2024-03-08T07:48:04;16.30;67.90
60313;DHT22;46158;52.850;6.970;2024-03-08T07:50:38;16.30;67.90
60313;DHT22;46158;52.850;6.970;2024-03-08T07:53:04;16.30;67.80
60313;DHT22;46158;52.850;6.970;2024-03-08T07:55:33;16.30;67.80
60313;DHT22;46158;52.850;6.970;2024-03-08T07:57:58;16.30;67.80
60313;DHT22;46158;52.850;6.970;2024-03-08T08:00:25;16.30;67.70
60313;DHT22;46158;52.850;6.970;2024-03-08T08:02:53;16.30;67.70
60313;DHT22;46158;52.850;6.970;2024-03-08T08:05:18;16.30;67.60
60313;DHT22;46158;52.850;6.970;2024-03-08T08:07:44;16.30;67.60
60313;DHT22;46158;52.850;6.970;2024-03-08T08:10:14;16.30;67.40
60313;DHT22;46158;52.850;6.970;2024-03-08T08:12:50;16.30;67.40
60313;DHT22;46158;52.850;6.970;2024-03-08T08:15:19;16.30;67.40
60313;DHT22;46158;52.850;6.970;2024-03-08T08:17:45;16.40;67.50
60313;DHT22;46158;52.850;6.970;2024-03-08T08:20:11;16.40;67.40
60313;DHT22;46158;52.850;6.970;2024-03-08T08:22:41;16.40;67.40
60313;DHT22;46158;52.850;6.970;2024-03-08T08:25:07;16.40;67.30
60313;DHT22;46158;52.850;6.970;2024-03-08T08:27:33;16.40;67.30
60313;DHT22;46158;52.850;6.970;2024-03-08T08:29:58;16.40;67.20
60313;DHT22;46158;52.850;6.970;2024-03-08T08:32:24;16.40;67.20
60313;DHT22;46158;52.850;6.970;2024-03-08T08:34:50;16.40;67.20
60313;DHT22;46158;52.850;6.970;2024-03-08T08:37:16;16.40;67.20
60313;DHT22;46158;52.850;6.970;2024-03-08T08:39:42;16.40;67.20
60313;DHT22;46158;52.850;6.970;2024-03-08T08:42:07;16.40;67.10
60313;DHT22;46158;52.850;6.970;2024-03-08T08:44:35;16.40;67.00
60313;DHT22;46158;52.850;6.970;2024-03-08T08:47:01;16.40;67.00
60313;DHT22;46158;52.850;6.970;2024-03-08T08:49:28;16.40;66.90
60313;DHT22;46158;52.850;6.970;2024-03-08T08:51:55;16.50;67.00
60313;DHT22;46158;52.850;6.970;2024-03-08T08:54:20;16.40;66.80
60313;DHT22;46158;52.850;6.970;2024-03-08T08:56:47;16.50;66.80
60313;DHT22;46158;52.850;6.970;2024-03-08T08:59:13;16.50;66.80
60313;DHT22;46158;52.850;6.970;2024-03-08T09:01:45;16.50;66.70
60313;DHT22;46158;52.850;6.970;2024-03-08T09:04:12;16.50;66.60
60313;DHT22;46158;52.850;6.970;2024-03-08T09:06:38;16.50;66.60
60313;DHT22;46158;52.850;6.970;2024-03-08T09:09:06;16.50;66.50
60313;DHT22;46158;52.850;6.970;2024-03-08T09:11:34;16.50;66.40
60313;DHT22;46158;52.850;6.970;2024-03-08T09:14:00;16.40;66.20
60313;DHT22;46158;52.850;6.970;2024-03-08T09:16:27;16.40;65.90
60313;DHT22;46158;52.850;6.970;2024-03-08T09:18:53;16.40;65.80
60313;DHT22;46158;52.850;6.970;2024-03-08T09:21:18;16.40;65.80
60313;DHT22;46158;52.850;6.970;2024-03-08T09:23:44;16.40;65.60
60313;DHT22;46158;52.850;6.970;2024-03-08T09:26:10;16.50;65.50
60313;DHT22;46158;52.850;6.970;2024-03-08T09:28:38;16.50;65.40
60313;DHT22;46158;52.850;6.970;2024-03-08T09:31:04;16.60;65.40
60313;DHT22;46158;52.850;6.970;2024-03-08T09:33:30;16.60;65.30
60313;DHT22;46158;52.850;6.970;2024-03-08T09:35:57;16.70;65.20
60313;DHT22;46158;52.850;6.970;2024-03-08T09:38:25;16.60;65.00
60313;DHT22;46158;52.850;6.970;2024-03-08T09:40:51;16.60;64.90
60313;DHT22;46158;52.850;6.970;2024-03-08T09:43:18;16.60;64.70
60313;DHT22;46158;52.850;6.970;2024-03-08T09:45:45;16.50;64.40
60313;DHT22;46158;52.850;6.970;2024-03-08T09:48:16;16.50;64.30
60313;DHT22;46158;52.850;6.970;2024-03-08T09:50:44;16.50;64.40
60313;DHT22;46158;52.850;6.970;2024-03-08T09:53:11;16.50;64.50
60313;DHT22;46158;52.850;6.970;2024-03-08T09:55:38;16.40;64.50
60313;DHT22;46158;52.850;6.970;2024-03-08T09:58:08;16.40;64.60
60313;DHT22;46158;52.850;6.970;2024-03-08T10:00:54;16.40;64.60
60313;DHT22;46158;52.850;6.970;2024-03-08T10:03:23;16.30;64.70
60313;DHT22;46158;52.850;6.970;2024-03-08T10:05:51;16.30;64.90
60313;DHT22;46158;52.850;6.970;2024-03-08T10:08:17;16.20;64.90
60313;DHT22;46158;52.850;6.970;2024-03-08T10:10:43;16.20;65.00
60313;DHT22;46158;52.850;6.970;2024-03-08T10:13:10;16.30;65.10
60313;DHT22;46158;52.850;6.970;2024-03-08T10:15:39;16.30;65.20
60313;DHT22;46158;52.850;6.970;2024-03-08T10:18:06;16.20;65.20
60313;DHT22;46158;52.850;6.970;2024-03-08T10:20:32;16.30;65.30
60313;DHT22;46158;52.850;6.970;2024-03-08T10:23:02;16.30;65.20
60313;DHT22;46158;52.850;6.970;2024-03-08T10:25:32;16.30;65.20
60313;DHT22;46158;52.850;6.970;2024-03-08T10:27:58;16.30;65.10
60313;DHT22;46158;52.850;6.970;2024-03-08T10:30:24;16.30;64.90
60313;DHT22;46158;52.850;6.970;2024-03-08T10:32:50;16.40;64.90
60313;DHT22;46158;52.850;6.970;2024-03-08T10:35:17;16.40;64.80
60313;DHT22;46158;52.850;6.970;2024-03-08T10:37:50;16.50;64.80
60313;DHT22;46158;52.850;6.970;2024-03-08T10:40:24;16.40;64.50
60313;DHT22;46158;52.850;6.970;2024-03-08T10:43:00;16.50;64.70
60313;DHT22;46158;52.850;6.970;2024-03-08T10:45:38;16.50;64.70
60313;DHT22;46158;52.850;6.970;2024-03-08T10:48:30;16.50;64.60
60313;DHT22;46158;52.850;6.970;2024-03-08T10:51:04;16.50;64.70
60313;DHT22;46158;52.850;6.970;2024-03-08T10:53:30;16.50;64.70
60313;DHT22;46158;52.850;6.970;2024-03-08T10:55:57;16.50;64.70
60313;DHT22;46158;52.850;6.970;2024-03-08T10:58:25;16.50;64.60
60313;DHT22;46158;52.850;6.970;2024-03-08T11:00:57;16.50;64.70
60313;DHT22;46158;52.850;6.970;2024-03-08T11:06:08;16.50;64.60
60313;DHT22;46158;52.850;6.970;2024-03-08T11:08:37;16.50;64.60
60313;DHT22;46158;52.850;6.970;2024-03-08T11:11:04;16.50;64.60
60313;DHT22;46158;52.850;6.970;2024-03-08T11:13:34;16.50;64.60
60313;DHT22;46158;52.850;6.970;2024-03-08T11:16:01;16.50;64.50
60313;DHT22;46158;52.850;6.970;2024-03-08T11:18:27;16.50;64.60
60313;DHT22;46158;52.850;6.970;2024-03-08T11:20:55;16.60;64.50
60313;DHT22;46158;52.850;6.970;2024-03-08T11:23:23;16.60;64.60
60313;DHT22;46158;52.850;6.970;2024-03-08T11:25:49;16.50;64.90
60313;DHT22;46158;52.850;6.970;2024-03-08T11:28:23;16.50;64.80
60313;DHT22;46158;52.850;6.970;2024-03-08T11:33:27;16.60;64.70
60313;DHT22;46158;52.850;6.970;2024-03-08T11:36:10;16.60;64.70
60313;DHT22;46158;52.850;6.970;2024-03-08T11:38:40;16.60;64.70
60313;DHT22;46158;52.850;6.970;2024-03-08T11:41:07;16.50;64.60
60313;DHT22;46158;52.850;6.970;2024-03-08T11:43:33;16.50;64.50
60313;DHT22;46158;52.850;6.970;2024-03-08T11:46:13;16.50;64.80
60313;DHT22;46158;52.850;6.970;2024-03-08T11:48:42;16.50;64.40
60313;DHT22;46158;52.850;6.970;2024-03-08T11:51:12;16.50;64.60
60313;DHT22;46158;52.850;6.970;2024-03-08T11:53:40;16.40;64.60
60313;DHT22;46158;52.850;6.970;2024-03-08T11:56:10;16.40;64.70
60313;DHT22;46158;52.850;6.970;2024-03-08T11:58:36;16.20;64.80
60313;DHT22;46158;52.850;6.970;2024-03-08T12:01:07;16.20;64.80
60313;DHT22;46158;52.850;6.970;2024-03-08T12:03:33;16.10;64.50
60313;DHT22;46158;52.850;6.970;2024-03-08T12:06:02;16.10;64.50
60313;DHT22;46158;52.850;6.970;2024-03-08T12:08:30;16.10;65.40
60313;DHT22;46158;52.850;6.970;2024-03-08T12:10:57;16.10;65.10
60313;DHT22;46158;52.850;6.970;2024-03-08T12:13:35;16.10;65.60
60313;DHT22;46158;52.850;6.970;2024-03-08T12:16:03;16.10;66.20
60313;DHT22;46158;52.850;6.970;2024-03-08T12:18:37;16.10;66.50
60313;DHT22;46158;52.850;6.970;2024-03-08T12:21:10;16.10;66.90
60313;DHT22;46158;52.850;6.970;2024-03-08T12:23:37;16.10;67.20
60313;DHT22;46158;52.850;6.970;2024-03-08T12:26:15;16.10;67.40
60313;DHT22;46158;52.850;6.970;2024-03-08T12:28:45;16.20;67.90
60313;DHT22;46158;52.850;6.970;2024-03-08T12:31:17;16.20;68.00
60313;DHT22;46158;52.850;6.970;2024-03-08T12:36:18;16.20;68.30
60313;DHT22;46158;52.850;6.970;2024-03-08T12:38:48;16.20;68.30
60313;DHT22;46158;52.850;6.970;2024-03-08T12:41:20;16.30;68.50
60313;DHT22;46158;52.850;6.970;2024-03-08T12:43:47;16.30;68.60
60313;DHT22;46158;52.850;6.970;2024-03-08T12:46:19;16.30;68.60
60313;DHT22;46158;52.850;6.970;2024-03-08T12:48:46;16.40;68.70
60313;DHT22;46158;52.850;6.970;2024-03-08T12:51:16;16.40;68.80
60313;DHT22;46158;52.850;6.970;2024-03-08T12:53:44;16.40;69.00
60313;DHT22;46158;52.850;6.970;2024-03-08T12:56:10;16.40;69.00
60313;DHT22;46158;52.850;6.970;2024-03-08T12:58:36;16.50;69.10
60313;DHT22;46158;52.850;6.970;2024-03-08T13:01:03;16.50;69.30
60313;DHT22;46158;52.850;6.970;2024-03-08T13:03:36;16.60;69.30
60313;DHT22;46158;52.850;6.970;2024-03-08T13:06:05;16.60;69.40
60313;DHT22;46158;52.850;6.970;2024-03-08T13:08:37;16.60;69.40
60313;DHT22;46158;52.850;6.970;2024-03-08T13:11:06;16.70;69.50
60313;DHT22;46158;52.850;6.970;2024-03-08T13:13:40;16.70;69.50
60313;DHT22;46158;52.850;6.970;2024-03-08T13:16:06;16.70;69.60
60313;DHT22;46158;52.850;6.970;2024-03-08T13:18:35;16.70;69.60
60313;DHT22;46158;52.850;6.970;2024-03-08T13:21:01;16.70;69.70
60313;DHT22;46158;52.850;6.970;2024-03-08T13:23:31;16.80;69.80
60313;DHT22;46158;52.850;6.970;2024-03-08T13:25:56;16.80;70.00
60313;DHT22;46158;52.850;6.970;2024-03-08T13:28:23;16.80;70.10
60313;DHT22;46158;52.850;6.970;2024-03-08T13:30:55;16.80;70.30
60313;DHT22;46158;52.850;6.970;2024-03-08T13:33:23;16.80;70.60
60313;DHT22;46158;52.850;6.970;2024-03-08T13:35:49;16.90;70.80
60313;DHT22;46158;52.850;6.970;2024-03-08T13:38:16;16.90;70.90
60313;DHT22;46158;52.850;6.970;2024-03-08T13:40:45;16.90;70.90
60313;DHT22;46158;52.850;6.970;2024-03-08T13:43:12;16.90;70.90
60313;DHT22;46158;52.850;6.970;2024-03-08T13:45:38;16.90;68.20
60313;DHT22;46158;52.850;6.970;2024-03-08T13:48:04;16.80;69.30
60313;DHT22;46158;52.850;6.970;2024-03-08T13:50:30;16.80;69.90
60313;DHT22;46158;52.850;6.970;2024-03-08T13:52:56;16.80;70.20
60313;DHT22;46158;52.850;6.970;2024-03-08T13:55:23;16.90;70.40
60313;DHT22;46158;52.850;6.970;2024-03-08T13:57:49;16.80;70.40
60313;DHT22;46158;52.850;6.970;2024-03-08T14:00:16;16.90;70.50
60313;DHT22;46158;52.850;6.970;2024-03-08T14:02:42;16.90;70.60
60313;DHT22;46158;52.850;6.970;2024-03-08T14:05:08;16.90;70.70
60313;DHT22;46158;52.850;6.970;2024-03-08T14:07:35;16.90;70.60
60313;DHT22;46158;52.850;6.970;2024-03-08T14:10:01;16.90;70.50
60313;DHT22;46158;52.850;6.970;2024-03-08T14:12:26;16.80;70.40
60313;DHT22;46158;52.850;6.970;2024-03-08T14:14:53;16.80;70.50
60313;DHT22;46158;52.850;6.970;2024-03-08T14:17:19;16.90;70.60
60313;DHT22;46158;52.850;6.970;2024-03-08T14:19:44;16.80;70.60
60313;DHT22;46158;52.850;6.970;2024-03-08T14:22:10;16.80;70.60
60313;DHT22;46158;52.850;6.970;2024-03-08T14:24:40;16.80;70.60
60313;DHT22;46158;52.850;6.970;2024-03-08T14:27:08;16.80;70.60
60313;DHT22;46158;52.850;6.970;2024-03-08T14:29:35;16.80;70.60
60313;DHT22;46158;52.850;6.970;2024-03-08T14:32:04;16.80;70.70
60313;DHT22;46158;52.850;6.970;2024-03-08T14:34:32;16.80;70.70
60313;DHT22;46158;52.850;6.970;2024-03-08T14:36:59;16.80;70.80
60313;DHT22;46158;52.850;6.970;2024-03-08T14:39:26;16.80;70.80
60313;DHT22;46158;52.850;6.970;2024-03-08T14:41:55;16.80;70.80
60313;DHT22;46158;52.850;6.970;2024-03-08T14:44:21;16.80;70.80
60313;DHT22;46158;52.850;6.970;2024-03-08T14:46:51;16.80;70.70
60313;DHT22;46158;52.850;6.970;2024-03-08T14:49:17;16.80;70.70
60313;DHT22;46158;52.850;6.970;2024-03-08T14:51:44;16.80;70.80
60313;DHT22;46158;52.850;6.970;2024-03-08T14:54:10;16.80;70.90
60313;DHT22;46158;52.850;6.970;2024-03-08T14:56:36;16.80;71.00
60313;DHT22;46158;52.850;6.970;2024-03-08T14:59:02;16.80;71.10
60313;DHT22;46158;52.850;6.970;2024-03-08T15:01:30;16.80;71.10
60313;DHT22;46158;52.850;6.970;2024-03-08T15:03:58;16.80;71.10
60313;DHT22;46158;52.850;6.970;2024-03-08T15:06:29;16.80;71.10
60313;DHT22;46158;52.850;6.970;2024-03-08T15:08:57;16.80;71.10
60313;DHT22;46158;52.850;6.970;2024-03-08T15:11:23;16.80;71.10
60313;DHT22;46158;52.850;6.970;2024-03-08T15:13:51;16.80;71.00
60313;DHT22;46158;52.850;6.970;2024-03-08T15:16:18;16.80;71.00
60313;DHT22;46158;52.850;6.970;2024-03-08T15:18:46;16.80;70.90
60313;DHT22;46158;52.850;6.970;2024-03-08T15:21:13;16.80;70.90
60313;DHT22;46158;52.850;6.970;2024-03-08T15:23:45;16.80;70.90
60313;DHT22;46158;52.850;6.970;2024-03-08T15:26:16;16.80;70.90
60313;DHT22;46158;52.850;6.970;2024-03-08T15:28:43;16.80;70.90
60313;DHT22;46158;52.850;6.970;2024-03-08T15:31:10;16.80;70.00
60313;DHT22;46158;52.850;6.970;2024-03-08T15:33:36;16.80;69.40
60313;DHT22;46158;52.850;6.970;2024-03-08T15:36:17;16.70;68.60
60313;DHT22;46158;52.850;6.970;2024-03-08T15:38:46;16.70;66.10
60313;DHT22;46158;52.850;6.970;2024-03-08T15:41:12;16.60;64.70